createdAt,value
2022-12-15T00:01:30.421Z,100092.50
2022-12-15T00:04:50.499Z,100088.53
2022-12-15T00:08:13.432Z,100092.91
2022-12-15T00:11:33.751Z,100086.16
2022-12-15T00:14:55.315Z,100086.34
2022-12-15T00:18:15.408Z,100086.50
2022-12-15T00:21:36.914Z,100091.84
2022-12-15T00:24:59.694Z,100082.84
2022-12-15T00:28:20.093Z,100078.44
2022-12-15T00:31:41.730Z,100079.03
2022-12-15T00:35:01.912Z,100079.00
2022-12-15T00:38:26.401Z,100077.59
2022-12-15T00:41:31.771Z,100088.41
2022-12-15T00:44:35.191Z,100086.91
2022-12-15T00:47:38.240Z,100082.56
2022-12-15T00:50:53.112Z,100081.59
2022-12-15T00:54:18.023Z,100082.25
2022-12-15T00:57:40.841Z,100079.22
2022-12-15T01:01:01.095Z,100087.81
2022-12-15T01:04:22.702Z,100086.47
2022-12-15T01:07:42.979Z,100093.44
2022-12-15T01:11:04.453Z,100101.59
2022-12-15T01:14:27.252Z,100105.31
2022-12-15T01:17:47.667Z,100104.00
2022-12-15T01:20:57.751Z,100107.19
2022-12-15T01:24:00.408Z,100102.03
2022-12-15T01:27:04.406Z,100100.88
2022-12-15T01:30:12.085Z,100108.19
2022-12-15T01:33:15.714Z,100111.69
2022-12-15T01:36:19.665Z,100106.97
2022-12-15T01:39:22.371Z,100109.25
2022-12-15T01:42:25.425Z,100116.25
2022-12-15T01:45:49.744Z,100113.13
2022-12-15T01:48:59.999Z,100119.03
2022-12-15T01:52:07.278Z,100126.44
2022-12-15T01:55:10.457Z,100115.94
2022-12-15T01:58:17.986Z,100122.19
2022-12-15T02:01:22.248Z,100113.25
2022-12-15T02:04:26.944Z,100113.25
2022-12-15T02:07:30.875Z,100114.81
2022-12-15T02:10:43.855Z,100114.81
2022-12-15T02:17:37.974Z,100117.69
2022-12-15T02:20:57.140Z,100123.47
2022-12-15T02:24:21.994Z,100124.84
2022-12-15T02:27:45.423Z,100129.31
2022-12-15T02:34:41.407Z,100149.50
2022-12-15T02:37:49.765Z,100162.50
2022-12-15T02:41:00.337Z,100164.78
2022-12-15T02:44:09.204Z,100171.72
2022-12-15T02:47:25.264Z,100175.75
2022-12-15T02:50:50.529Z,100176.75
2022-12-15T02:54:24.288Z,100182.53
2022-12-15T02:57:35.396Z,100175.75
2022-12-15T03:00:43.313Z,100179.78
2022-12-15T03:03:50.796Z,100175.66
2022-12-15T03:07:01.031Z,100175.75
2022-12-15T03:10:08.441Z,100173.75
2022-12-15T03:13:12.435Z,100181.81
2022-12-15T03:16:15.373Z,100173.28
2022-12-15T03:19:20.967Z,100162.38
2022-12-15T03:22:23.727Z,100177.13
2022-12-15T03:25:27.679Z,100176.22
2022-12-15T03:28:31.636Z,100183.78
2022-12-15T03:31:34.362Z,100186.66
2022-12-15T03:34:39.763Z,100191.19
2022-12-15T03:37:44.921Z,100181.13
2022-12-15T03:40:48.965Z,100190.50
2022-12-15T03:43:51.649Z,100189.59
2022-12-15T03:47:02.819Z,100191.09
2022-12-15T03:50:10.052Z,100177.94
2022-12-15T03:53:13.993Z,100193.09
2022-12-15T03:56:16.787Z,100204.72
2022-12-15T03:59:20.690Z,100205.69
2022-12-15T04:02:23.695Z,100198.63
2022-12-15T04:05:32.019Z,100197.63
2022-12-15T04:08:35.951Z,100200.97
2022-12-15T04:11:38.622Z,100204.84
2022-12-15T04:14:43.705Z,100204.91
2022-12-15T04:17:46.437Z,100208.97
2022-12-15T04:20:51.728Z,100222.63
2022-12-15T04:24:14.072Z,100214.81
2022-12-15T04:27:34.564Z,100216.47
2022-12-15T04:30:56.284Z,100232.91
2022-12-15T04:34:19.631Z,100228.78
2022-12-15T04:37:42.474Z,100236.63
2022-12-15T04:41:04.038Z,100246.47
2022-12-15T04:44:24.950Z,100247.38
2022-12-15T04:47:46.518Z,100264.69
2022-12-15T04:51:06.744Z,100260.34
2022-12-15T04:54:29.407Z,100290.53
2022-12-15T04:57:49.606Z,100283.81
2022-12-15T05:01:10.354Z,100275.22
2022-12-15T05:04:32.203Z,100269.22
2022-12-15T05:07:52.392Z,100267.34
2022-12-15T05:11:15.154Z,100266.84
2022-12-15T05:18:14.519Z,100281.97
2022-12-15T05:21:36.013Z,100289.44
2022-12-15T05:24:56.289Z,100298.28
2022-12-15T05:28:19.413Z,100301.25
2022-12-15T05:31:40.739Z,100299.66
2022-12-15T05:34:43.481Z,100292.59
2022-12-15T05:37:47.506Z,100293.94
2022-12-15T05:40:50.187Z,100307.84
2022-12-15T05:43:55.542Z,100312.03
2022-12-15T05:46:58.195Z,100301.16
2022-12-15T05:50:02.120Z,100300.84
2022-12-15T05:53:06.064Z,100340.75
2022-12-15T05:56:10.966Z,100352.47
2022-12-15T05:59:16.411Z,100359.75
2022-12-15T06:02:19.123Z,100360.44
2022-12-15T06:05:23.171Z,100354.78
2022-12-15T06:08:27.105Z,100363.31
2022-12-15T06:11:29.842Z,100353.66
2022-12-15T06:14:35.534Z,100339.28
2022-12-15T06:17:38.285Z,100344.97
2022-12-15T06:20:42.260Z,100339.28
2022-12-15T06:23:46.885Z,100334.78
2022-12-15T06:26:49.930Z,100341.13
2022-12-15T06:29:55.489Z,100345.44
2022-12-15T06:32:58.184Z,100347.75
2022-12-15T06:36:03.321Z,100334.72
2022-12-15T06:39:10.377Z,100340.69
2022-12-15T06:42:14.540Z,100345.75
2022-12-15T06:45:19.936Z,100342.09
2022-12-15T06:48:24.051Z,100351.59
2022-12-15T06:51:28.998Z,100373.44
2022-12-15T06:54:32.921Z,100370.34
2022-12-15T06:57:36.578Z,100375.69
2022-12-15T07:00:43.869Z,100391.50
2022-12-15T07:03:47.271Z,100391.66
2022-12-15T07:06:51.420Z,100401.06
2022-12-15T07:09:55.684Z,100405.56
2022-12-15T07:12:58.625Z,100398.56
2022-12-15T07:16:04.334Z,100407.69
2022-12-15T07:19:07.097Z,100420.72
2022-12-15T07:22:11.060Z,100424.00
2022-12-15T07:25:14.980Z,100428.66
2022-12-15T07:28:22.538Z,100434.09
2022-12-15T07:31:32.967Z,100427.81
2022-12-15T07:34:35.828Z,100434.69
2022-12-15T07:37:39.752Z,100429.19
2022-12-15T07:40:43.759Z,100436.72
2022-12-15T07:43:47.542Z,100439.44
2022-12-15T07:46:53.577Z,100451.16
2022-12-15T07:49:56.251Z,100458.69
2022-12-15T07:53:00.190Z,100467.81
2022-12-15T07:59:27.216Z,100469.47
2022-12-15T08:02:31.492Z,100468.84
2022-12-15T08:08:57.352Z,100461.13
2022-12-15T08:12:01.308Z,100464.44
2022-12-15T08:15:04.709Z,100472.00
2022-12-15T08:18:11.235Z,100472.72
2022-12-15T08:21:14.594Z,100488.81
2022-12-15T08:24:20.528Z,100490.19
2022-12-15T08:27:25.355Z,100487.41
2022-12-15T08:30:28.032Z,100488.00
2022-12-15T08:33:34.394Z,100490.50
2022-12-15T08:36:37.407Z,100493.72
2022-12-15T08:39:41.359Z,100486.25
2022-12-15T08:42:46.144Z,100490.81
2022-12-15T08:45:49.103Z,100492.91
2022-12-15T08:48:55.982Z,100495.56
2022-12-15T08:51:58.676Z,100499.31
2022-12-15T08:55:02.665Z,100495.09
2022-12-15T08:58:06.984Z,100504.06
2022-12-15T09:01:20.562Z,100505.41
2022-12-15T09:04:28.227Z,100501.09
2022-12-15T09:07:30.975Z,100520.91
2022-12-15T09:10:34.954Z,100512.03
2022-12-15T09:13:37.975Z,100516.78
2022-12-15T09:16:41.997Z,100514.69
2022-12-15T09:19:47.348Z,100514.56
2022-12-15T09:22:50.299Z,100522.47
2022-12-15T09:26:01.928Z,100530.03
2022-12-15T09:29:04.659Z,100528.19
2022-12-15T09:32:14.080Z,100523.50
2022-12-15T09:35:19.798Z,100537.06
2022-12-15T09:38:22.639Z,100531.19
2022-12-15T09:41:29.465Z,100530.31
2022-12-15T09:44:33.954Z,100527.78
2022-12-15T09:47:44.846Z,100533.16
2022-12-15T09:50:54.672Z,100534.41
2022-12-15T09:53:57.667Z,100530.34
2022-12-15T09:57:07.318Z,100534.69
2022-12-15T10:00:21.175Z,100534.03
2022-12-15T10:03:38.226Z,100532.03
2022-12-15T10:06:51.771Z,100535.84
2022-12-15T10:09:54.685Z,100541.72
2022-12-15T10:13:04.913Z,100547.25
2022-12-15T10:16:19.527Z,100542.75
2022-12-15T10:19:31.784Z,100535.34
2022-12-15T10:22:39.868Z,100532.63
2022-12-15T10:25:48.594Z,100542.59
2022-12-15T10:29:11.040Z,100532.75
2022-12-15T10:32:19.079Z,100536.63
2022-12-15T10:35:26.501Z,100541.38
2022-12-15T10:38:37.781Z,100535.28
2022-12-15T10:41:42.069Z,100540.13
2022-12-15T10:48:21.328Z,100551.34
2022-12-15T10:51:31.061Z,100560.38
2022-12-15T10:54:38.922Z,100550.06
2022-12-15T10:57:59.282Z,100542.53
2022-12-15T11:01:16.745Z,100552.34
2022-12-15T11:04:30.267Z,100549.13
2022-12-15T11:07:40.994Z,100561.91
2022-12-15T11:11:11.289Z,100559.00
2022-12-15T11:14:18.443Z,100561.78
2022-12-15T11:17:25.590Z,100555.75
2022-12-15T11:20:31.694Z,100559.34
2022-12-15T11:23:48.790Z,100566.69
2022-12-15T11:27:19.319Z,100570.94
2022-12-15T11:30:25.291Z,100565.81
2022-12-15T11:37:16.255Z,100579.50
2022-12-15T11:40:41.922Z,100577.66
2022-12-15T11:44:06.495Z,100573.44
2022-12-15T11:47:16.701Z,100573.66
2022-12-15T11:54:10.184Z,100571.72
2022-12-15T11:57:40.907Z,100568.94
2022-12-15T12:00:54.702Z,100567.00
2022-12-15T12:04:05.704Z,100570.78
2022-12-15T12:07:17.244Z,100558.84
2022-12-15T12:10:32.245Z,100565.34
2022-12-15T12:13:45.419Z,100550.63
2022-12-15T12:16:56.601Z,100559.53
2022-12-15T12:20:11.279Z,100546.03
2022-12-15T12:23:21.004Z,100547.06
2022-12-15T12:26:31.602Z,100551.78
2022-12-15T12:29:37.618Z,100544.41
2022-12-15T12:32:51.028Z,100560.81
2022-12-15T12:35:58.890Z,100569.72
2022-12-15T12:39:03.667Z,100564.00
2022-12-15T12:42:13.433Z,100559.56
2022-12-15T12:45:18.040Z,100562.94
2022-12-15T12:48:28.905Z,100560.94
2022-12-15T12:51:35.195Z,100558.78
2022-12-15T12:54:43.549Z,100562.06
2022-12-15T12:57:50.032Z,100568.00
2022-12-15T13:01:08.275Z,100569.09
2022-12-15T13:04:15.017Z,100570.72
2022-12-15T13:07:32.493Z,100579.75
2022-12-15T13:10:38.443Z,100582.47
2022-12-15T13:13:48.559Z,100577.13
2022-12-15T13:17:24.913Z,100570.72
2022-12-15T13:20:26.994Z,100571.63
2022-12-15T13:23:42.807Z,100581.03
2022-12-15T13:30:18.010Z,100556.69
2022-12-15T13:33:22.092Z,100561.59
2022-12-15T13:36:52.520Z,100565.22
2022-12-15T13:39:59.166Z,100563.22
2022-12-15T13:43:12.625Z,100561.63
2022-12-15T13:46:19.378Z,100579.44
2022-12-15T13:49:29.230Z,100578.06
2022-12-15T13:53:08.653Z,100571.84
2022-12-15T13:56:22.074Z,100573.03
2022-12-15T13:59:34.766Z,100575.09
2022-12-15T14:06:02.458Z,100575.09
2022-12-15T14:09:07.948Z,100579.59
2022-12-15T14:12:16.430Z,100578.09
2022-12-15T14:15:23.429Z,100582.16
2022-12-15T14:18:31.160Z,100576.25
2022-12-15T14:21:35.115Z,100578.63
2022-12-15T14:24:50.717Z,100579.38
2022-12-15T14:27:54.783Z,100579.72
2022-12-15T14:31:01.001Z,100576.72
2022-12-15T14:34:09.104Z,100574.69
2022-12-15T14:37:18.034Z,100572.25
2022-12-15T14:40:28.623Z,100577.50
2022-12-15T14:43:37.463Z,100570.00
2022-12-15T14:46:40.803Z,100574.56
2022-12-15T14:53:17.814Z,100574.84
2022-12-15T14:56:31.146Z,100582.59
2022-12-15T14:59:36.893Z,100582.13
2022-12-15T15:02:39.816Z,100587.50
2022-12-15T15:03:11.381Z,100548.75
2022-12-15T15:03:16.061Z,100573.06
2022-12-15T15:09:21.263Z,100589.72
2022-12-15T15:12:35.349Z,100593.31
2022-12-15T15:15:39.316Z,100581.38
2022-12-15T15:18:43.711Z,100591.34
2022-12-15T15:21:48.482Z,100603.13
2022-12-15T15:24:53.982Z,100611.00
2022-12-15T15:28:14.136Z,100611.00
2022-12-15T15:31:40.922Z,100602.16
2022-12-15T15:38:18.731Z,100602.84
2022-12-15T15:41:24.964Z,100606.88
2022-12-15T15:44:29.073Z,100604.19
2022-12-15T15:47:33.146Z,100603.00
2022-12-15T15:50:37.773Z,100608.25
2022-12-15T15:53:41.874Z,100598.03
2022-12-15T15:56:45.897Z,100589.63
2022-12-15T15:59:49.953Z,100595.19
2022-12-15T16:02:54.476Z,100594.50
2022-12-15T16:05:57.514Z,100608.59
2022-12-15T16:09:01.641Z,100605.75
2022-12-15T16:12:07.614Z,100604.25
2022-12-15T16:15:23.015Z,100605.25
2022-12-15T16:18:25.778Z,100603.72
2022-12-15T16:21:28.837Z,100606.44
2022-12-15T16:24:32.780Z,100607.94
2022-12-15T16:27:35.486Z,100607.59
2022-12-15T16:34:02.737Z,100621.03
2022-12-15T16:37:07.347Z,100623.84
2022-12-15T16:40:19.169Z,100619.81
2022-12-15T16:43:25.656Z,100628.38
2022-12-15T16:46:31.096Z,100633.41
2022-12-15T16:52:56.010Z,100631.75
2022-12-15T16:56:01.892Z,100634.25
2022-12-15T17:02:31.152Z,100640.44
2022-12-15T17:05:37.728Z,100640.94
2022-12-15T17:08:44.615Z,100645.47
2022-12-15T17:11:48.650Z,100647.78
2022-12-15T17:14:52.608Z,100648.47
2022-12-15T17:17:57.332Z,100648.13
2022-12-15T17:21:05.063Z,100653.50
2022-12-15T17:24:14.983Z,100658.03
2022-12-15T17:27:25.799Z,100662.91
2022-12-15T17:30:29.732Z,100667.41
2022-12-15T17:33:36.202Z,100666.75
2022-12-15T17:36:40.296Z,100664.72
2022-12-15T17:39:49.095Z,100679.00
2022-12-15T17:42:51.994Z,100671.94
2022-12-15T17:45:57.008Z,100678.63
2022-12-15T17:49:01.141Z,100685.84
2022-12-15T17:52:07.716Z,100691.88
2022-12-15T17:55:21.956Z,100683.19
2022-12-15T17:58:26.650Z,100690.56
2022-12-15T18:01:30.705Z,100688.03
2022-12-15T18:04:35.258Z,100686.38
2022-12-15T18:07:39.399Z,100695.06
2022-12-15T18:10:43.953Z,100692.06
2022-12-15T18:13:46.658Z,100685.53
2022-12-15T18:20:13.266Z,100683.69
2022-12-15T18:23:19.211Z,100678.28
2022-12-15T18:26:23.319Z,100675.63
2022-12-15T18:29:26.213Z,100687.84
2022-12-15T18:32:31.899Z,100693.88
2022-12-15T18:35:39.965Z,100693.22
2022-12-15T18:38:44.582Z,100697.88
2022-12-15T18:45:18.099Z,100705.06
2022-12-15T18:48:24.605Z,100713.59
2022-12-15T18:51:30.647Z,100708.38
2022-12-15T18:54:34.677Z,100706.34
2022-12-15T18:57:39.022Z,100714.22
2022-12-15T19:00:41.817Z,100701.31
2022-12-15T19:03:45.784Z,100698.13
2022-12-15T19:06:49.876Z,100702.47
2022-12-15T19:09:53.983Z,100716.56
2022-12-15T19:12:58.715Z,100715.34
2022-12-15T19:16:04.072Z,100717.19
2022-12-15T19:19:25.395Z,100713.38
2022-12-15T19:22:29.964Z,100716.72
2022-12-15T19:25:34.792Z,100712.66
2022-12-15T19:28:37.613Z,100711.81
2022-12-15T19:31:41.664Z,100705.63
2022-12-15T19:34:46.097Z,100709.69
2022-12-15T19:37:50.358Z,100708.81
2022-12-15T19:40:55.653Z,100707.13
2022-12-15T19:43:58.337Z,100705.78
2022-12-15T19:47:02.313Z,100713.81
2022-12-15T19:50:06.803Z,100729.34
2022-12-15T19:53:17.395Z,100732.19
2022-12-15T19:56:24.033Z,100719.63
2022-12-15T19:59:28.131Z,100730.31
2022-12-15T20:02:32.164Z,100729.09
2022-12-15T20:05:36.540Z,100717.22
2022-12-15T20:08:42.698Z,100721.41
2022-12-15T20:11:46.994Z,100722.56
2022-12-15T20:14:49.688Z,100718.66
2022-12-15T20:21:22.604Z,100725.19
2022-12-15T20:24:27.302Z,100724.00
2022-12-15T20:27:31.544Z,100729.34
2022-12-15T20:30:36.309Z,100725.16
2022-12-15T20:40:26.301Z,100729.13
2022-12-15T20:43:33.174Z,100736.81
2022-12-15T20:46:37.577Z,100728.13
2022-12-15T20:49:40.361Z,100729.38
2022-12-15T20:52:44.743Z,100728.38
2022-12-15T20:55:50.404Z,100726.03
2022-12-15T20:58:55.324Z,100726.19
2022-12-15T21:01:58.251Z,100731.59
2022-12-15T21:05:02.454Z,100733.53
2022-12-15T21:08:12.503Z,100716.97
2022-12-15T21:11:21.180Z,100720.63
2022-12-15T21:14:26.629Z,100725.91
2022-12-15T21:17:57.940Z,100723.44
2022-12-15T21:21:20.781Z,100732.47
2022-12-15T21:24:27.205Z,100735.25
2022-12-15T21:27:31.304Z,100734.25
2022-12-15T21:30:36.888Z,100731.41
2022-12-15T21:33:40.893Z,100741.44
2022-12-15T21:36:45.751Z,100735.94
2022-12-15T21:39:49.902Z,100749.00
2022-12-15T21:42:54.710Z,100739.22
2022-12-15T21:45:58.787Z,100736.78
2022-12-15T21:49:19.387Z,100736.09
2022-12-15T21:52:23.138Z,100733.25
2022-12-15T21:55:29.597Z,100731.31
2022-12-15T21:58:34.072Z,100739.31
2022-12-15T22:04:59.795Z,100740.75
2022-12-15T22:08:14.072Z,100747.94
2022-12-15T22:14:45.352Z,100739.25
2022-12-15T22:17:48.608Z,100735.47
2022-12-15T22:20:53.701Z,100742.63
2022-12-15T22:23:56.440Z,100743.13
2022-12-15T22:27:00.408Z,100733.06
2022-12-15T22:30:05.985Z,100733.19
2022-12-15T22:33:20.397Z,100735.19
2022-12-15T22:36:24.629Z,100737.03
2022-12-15T22:39:28.464Z,100744.72
2022-12-15T22:42:32.523Z,100741.59
2022-12-15T22:45:41.259Z,100727.78
2022-12-15T22:48:47.938Z,100727.13
2022-12-15T22:51:51.935Z,100732.31
2022-12-15T22:54:56.729Z,100744.50
2022-12-15T23:01:29.137Z,100743.16
2022-12-15T23:04:34.020Z,100748.78
2022-12-15T23:07:37.010Z,100742.22
2022-12-15T23:10:58.762Z,100747.88
2022-12-15T23:14:01.455Z,100749.00
2022-12-15T23:17:05.867Z,100748.72
2022-12-15T23:20:09.688Z,100749.84
2022-12-15T23:23:13.759Z,100756.19
2022-12-15T23:26:18.087Z,100756.88
2022-12-15T23:29:22.123Z,100753.94
2022-12-15T23:32:27.535Z,100748.22
2022-12-15T23:35:30.303Z,100761.59
2022-12-15T23:38:34.335Z,100760.91
2022-12-15T23:41:37.049Z,100756.81
2022-12-15T23:44:41.051Z,100760.78
2022-12-15T23:47:46.455Z,100763.09
2022-12-15T23:50:50.452Z,100756.34
2022-12-15T23:53:54.715Z,100756.78
2022-12-15T23:56:57.477Z,100762.81
